sensor_id;sensor_type;location;lat;lon;timestamp;temperature;humidity
31725;DHT22;18306;40.960;14.836;2022-08-19T00:02:03;22.90;99.90
31725;DHT22;18306;40.960;14.836;2022-08-19T00:04:33;22.90;99.90
31725;DHT22;18306;40.960;14.836;2022-08-19T00:07:04;22.90;99.90
31725;DHT22;18306;40.960;14.836;2022-08-19T00:09:32;22.90;99.90
31725;DHT22;18306;40.960;14.836;2022-08-19T00:12:00;22.70;99.90
31725;DHT22;18306;40.960;14.836;2022-08-19T00:14:29;22.60;99.90
31725;DHT22;18306;40.960;14.836;2022-08-19T00:17:00;22.60;99.90
31725;DHT22;18306;40.960;14.836;2022-08-19T00:19:27;22.70;99.90
31725;DHT22;18306;40.960;14.836;2022-08-19T00:21:55;22.70;99.90
31725;DHT22;18306;40.960;14.836;2022-08-19T00:24:22;22.80;99.90
31725;DHT22;18306;40.960;14.836;2022-08-19T00:26:51;22.80;99.90
31725;DHT22;18306;40.960;14.836;2022-08-19T00:29:20;22.70;99.90
31725;DHT22;18306;40.960;14.836;2022-08-19T00:31:48;22.60;99.90
31725;DHT22;18306;40.960;14.836;2022-08-19T00:34:16;22.60;99.90
31725;DHT22;18306;40.960;14.836;2022-08-19T00:36:44;22.60;99.90
31725;DHT22;18306;40.960;14.836;2022-08-19T00:39:13;22.70;99.90
31725;DHT22;18306;40.960;14.836;2022-08-19T00:41:42;22.70;99.90
31725;DHT22;18306;40.960;14.836;2022-08-19T00:44:15;22.70;99.90
31725;DHT22;18306;40.960;14.836;2022-08-19T00:46:44;22.60;99.90
31725;DHT22;18306;40.960;14.836;2022-08-19T00:49:33;22.50;99.90
31725;DHT22;18306;40.960;14.836;2022-08-19T00:52:15;22.30;99.90
31725;DHT22;18306;40.960;14.836;2022-08-19T00:54:46;22.30;99.90
31725;DHT22;18306;40.960;14.836;2022-08-19T00:57:18;22.30;99.90
31725;DHT22;18306;40.960;14.836;2022-08-19T00:59:52;22.50;99.90
31725;DHT22;18306;40.960;14.836;2022-08-19T01:02:21;22.40;99.90
31725;DHT22;18306;40.960;14.836;2022-08-19T01:04:49;22.30;99.90
31725;DHT22;18306;40.960;14.836;2022-08-19T01:07:16;22.40;99.90
31725;DHT22;18306;40.960;14.836;2022-08-19T01:09:44;22.40;99.90
31725;DHT22;18306;40.960;14.836;2022-08-19T01:12:12;22.30;99.90
31725;DHT22;18306;40.960;14.836;2022-08-19T01:14:40;22.30;99.90
31725;DHT22;18306;40.960;14.836;2022-08-19T01:17:09;22.40;99.90
31725;DHT22;18306;40.960;14.836;2022-08-19T01:19:39;22.50;99.90
31725;DHT22;18306;40.960;14.836;2022-08-19T01:25:29;22.50;99.90
31725;DHT22;18306;40.960;14.836;2022-08-19T01:27:58;22.30;99.90
31725;DHT22;18306;40.960;14.836;2022-08-19T01:30:29;22.40;99.90
31725;DHT22;18306;40.960;14.836;2022-08-19T01:32:57;22.40;99.90
31725;DHT22;18306;40.960;14.836;2022-08-19T01:35:29;22.40;99.90
31725;DHT22;18306;40.960;14.836;2022-08-19T01:38:03;22.50;99.90
31725;DHT22;18306;40.960;14.836;2022-08-19T01:40:37;22.60;99.90
31725;DHT22;18306;40.960;14.836;2022-08-19T01:43:05;22.60;99.90
31725;DHT22;18306;40.960;14.836;2022-08-19T01:45:35;22.60;99.90
31725;DHT22;18306;40.960;14.836;2022-08-19T01:48:03;22.60;99.90
31725;DHT22;18306;40.960;14.836;2022-08-19T01:50:32;22.60;99.90
31725;DHT22;18306;40.960;14.836;2022-08-19T01:53:01;22.60;99.90
31725;DHT22;18306;40.960;14.836;2022-08-19T01:55:29;22.70;99.90
31725;DHT22;18306;40.960;14.836;2022-08-19T01:58:00;22.60;99.90
31725;DHT22;18306;40.960;14.836;2022-08-19T02:00:30;22.60;99.90
31725;DHT22;18306;40.960;14.836;2022-08-19T02:02:58;22.70;99.90
31725;DHT22;18306;40.960;14.836;2022-08-19T02:05:26;22.70;99.90
31725;DHT22;18306;40.960;14.836;2022-08-19T02:07:56;22.70;99.90
31725;DHT22;18306;40.960;14.836;2022-08-19T02:10:24;22.70;99.90
31725;DHT22;18306;40.960;14.836;2022-08-19T02:12:51;22.60;99.90
31725;DHT22;18306;40.960;14.836;2022-08-19T02:15:19;22.60;99.90
31725;DHT22;18306;40.960;14.836;2022-08-19T02:17:47;22.60;99.90
31725;DHT22;18306;40.960;14.836;2022-08-19T02:20:15;22.70;99.90
31725;DHT22;18306;40.960;14.836;2022-08-19T02:22:45;22.70;99.90
31725;DHT22;18306;40.960;14.836;2022-08-19T02:25:14;22.60;99.90
31725;DHT22;18306;40.960;14.836;2022-08-19T02:27:42;22.50;99.90
31725;DHT22;18306;40.960;14.836;2022-08-19T02:30:13;22.70;99.90
31725;DHT22;18306;40.960;14.836;2022-08-19T02:32:42;22.80;99.90
31725;DHT22;18306;40.960;14.836;2022-08-19T02:35:11;22.80;99.90
31725;DHT22;18306;40.960;14.836;2022-08-19T02:37:38;23.00;99.90
31725;DHT22;18306;40.960;14.836;2022-08-19T02:40:24;23.00;99.90
31725;DHT22;18306;40.960;14.836;2022-08-19T02:42:51;22.90;99.90
31725;DHT22;18306;40.960;14.836;2022-08-19T02:45:19;22.90;99.90
31725;DHT22;18306;40.960;14.836;2022-08-19T02:47:46;22.90;99.90
31725;DHT22;18306;40.960;14.836;2022-08-19T02:50:14;22.90;99.90
31725;DHT22;18306;40.960;14.836;2022-08-19T02:52:41;22.90;99.90
31725;DHT22;18306;40.960;14.836;2022-08-19T02:55:09;22.90;99.90
31725;DHT22;18306;40.960;14.836;2022-08-19T02:57:36;22.90;99.90
31725;DHT22;18306;40.960;14.836;2022-08-19T03:00:07;22.80;99.90
31725;DHT22;18306;40.960;14.836;2022-08-19T03:02:36;22.80;99.90
31725;DHT22;18306;40.960;14.836;2022-08-19T03:05:04;22.80;99.90
31725;DHT22;18306;40.960;14.836;2022-08-19T03:07:31;22.90;99.90
31725;DHT22;18306;40.960;14.836;2022-08-19T03:09:58;23.00;99.90
31725;DHT22;18306;40.960;14.836;2022-08-19T03:12:26;23.00;99.90
31725;DHT22;18306;40.960;14.836;2022-08-19T03:14:53;22.80;99.90
31725;DHT22;18306;40.960;14.836;2022-08-19T03:17:20;22.90;99.90
31725;DHT22;18306;40.960;14.836;2022-08-19T03:19:47;23.00;99.90
31725;DHT22;18306;40.960;14.836;2022-08-19T03:22:14;23.10;99.90
31725;DHT22;18306;40.960;14.836;2022-08-19T03:24:42;23.20;99.90
31725;DHT22;18306;40.960;14.836;2022-08-19T03:27:10;23.10;99.90
31725;DHT22;18306;40.960;14.836;2022-08-19T03:29:37;23.00;99.90
31725;DHT22;18306;40.960;14.836;2022-08-19T03:32:06;23.00;99.90
31725;DHT22;18306;40.960;14.836;2022-08-19T03:34:36;23.00;99.90
31725;DHT22;18306;40.960;14.836;2022-08-19T03:37:09;23.10;99.90
31725;DHT22;18306;40.960;14.836;2022-08-19T03:39:39;23.10;99.90
31725;DHT22;18306;40.960;14.836;2022-08-19T03:42:06;23.10;99.90
31725;DHT22;18306;40.960;14.836;2022-08-19T03:44:34;23.20;99.90
31725;DHT22;18306;40.960;14.836;2022-08-19T03:47:04;23.20;99.90
31725;DHT22;18306;40.960;14.836;2022-08-19T03:49:33;23.30;99.90
31725;DHT22;18306;40.960;14.836;2022-08-19T03:52:02;23.30;99.90
31725;DHT22;18306;40.960;14.836;2022-08-19T03:54:32;23.30;99.90
31725;DHT22;18306;40.960;14.836;2022-08-19T03:56:59;23.30;99.90
31725;DHT22;18306;40.960;14.836;2022-08-19T03:59:30;23.40;99.90
31725;DHT22;18306;40.960;14.836;2022-08-19T04:02:00;23.40;99.90
31725;DHT22;18306;40.960;14.836;2022-08-19T04:04:28;23.40;99.90
31725;DHT22;18306;40.960;14.836;2022-08-19T04:06:56;23.30;99.90
31725;DHT22;18306;40.960;14.836;2022-08-19T04:09:24;23.30;99.90
31725;DHT22;18306;40.960;14.836;2022-08-19T04:11:54;23.20;99.90
31725;DHT22;18306;40.960;14.836;2022-08-19T04:14:25;23.30;99.90
31725;DHT22;18306;40.960;14.836;2022-08-19T04:16:53;23.20;99.90
31725;DHT22;18306;40.960;14.836;2022-08-19T04:19:21;23.20;99.90
31725;DHT22;18306;40.960;14.836;2022-08-19T04:21:52;23.30;99.90
31725;DHT22;18306;40.960;14.836;2022-08-19T04:24:21;23.20;99.90
31725;DHT22;18306;40.960;14.836;2022-08-19T04:26:49;23.20;99.90
31725;DHT22;18306;40.960;14.836;2022-08-19T04:29:20;23.20;99.90
31725;DHT22;18306;40.960;14.836;2022-08-19T04:31:49;23.30;99.90
31725;DHT22;18306;40.960;14.836;2022-08-19T04:34:18;23.40;99.90
31725;DHT22;18306;40.960;14.836;2022-08-19T04:36:50;23.50;99.90
31725;DHT22;18306;40.960;14.836;2022-08-19T04:39:24;23.50;99.90
31725;DHT22;18306;40.960;14.836;2022-08-19T04:42:16;23.40;99.90
31725;DHT22;18306;40.960;14.836;2022-08-19T04:45:04;23.20;99.90
31725;DHT22;18306;40.960;14.836;2022-08-19T04:47:32;23.10;99.90
31725;DHT22;18306;40.960;14.836;2022-08-19T04:49:59;22.90;99.90
31725;DHT22;18306;40.960;14.836;2022-08-19T04:52:27;22.90;99.90
31725;DHT22;18306;40.960;14.836;2022-08-19T04:54:54;23.00;99.90
31725;DHT22;18306;40.960;14.836;2022-08-19T04:57:22;23.10;99.90
31725;DHT22;18306;40.960;14.836;2022-08-19T04:59:54;23.30;99.90
31725;DHT22;18306;40.960;14.836;2022-08-19T05:02:22;23.30;99.90
31725;DHT22;18306;40.960;14.836;2022-08-19T05:04:58;23.30;99.90
31725;DHT22;18306;40.960;14.836;2022-08-19T05:07:28;23.30;99.90
31725;DHT22;18306;40.960;14.836;2022-08-19T05:09:56;23.20;99.90
31725;DHT22;18306;40.960;14.836;2022-08-19T05:12:23;23.20;99.90
31725;DHT22;18306;40.960;14.836;2022-08-19T05:14:51;23.10;99.90
31725;DHT22;18306;40.960;14.836;2022-08-19T05:17:18;23.10;99.90
31725;DHT22;18306;40.960;14.836;2022-08-19T05:19:46;23.10;99.90
31725;DHT22;18306;40.960;14.836;2022-08-19T05:22:32;23.20;99.90
31725;DHT22;18306;40.960;14.836;2022-08-19T05:25:06;23.40;99.90
31725;DHT22;18306;40.960;14.836;2022-08-19T05:27:34;23.60;99.90
31725;DHT22;18306;40.960;14.836;2022-08-19T05:30:03;23.80;99.90
31725;DHT22;18306;40.960;14.836;2022-08-19T05:32:31;23.90;99.90
31725;DHT22;18306;40.960;14.836;2022-08-19T05:35:09;24.10;99.90
31725;DHT22;18306;40.960;14.836;2022-08-19T05:37:44;24.30;99.90
31725;DHT22;18306;40.960;14.836;2022-08-19T05:40:17;24.30;99.90
31725;DHT22;18306;40.960;14.836;2022-08-19T05:43:00;24.60;99.90
31725;DHT22;18306;40.960;14.836;2022-08-19T05:45:44;24.90;99.90
31725;DHT22;18306;40.960;14.836;2022-08-19T05:48:19;25.10;99.90
31725;DHT22;18306;40.960;14.836;2022-08-19T05:50:49;25.40;99.90
31725;DHT22;18306;40.960;14.836;2022-08-19T05:53:18;25.50;99.90
31725;DHT22;18306;40.960;14.836;2022-08-19T05:55:45;25.70;99.90
31725;DHT22;18306;40.960;14.836;2022-08-19T05:58:13;25.80;99.90
31725;DHT22;18306;40.960;14.836;2022-08-19T06:00:40;25.90;99.90
31725;DHT22;18306;40.960;14.836;2022-08-19T06:03:09;26.00;99.90
31725;DHT22;18306;40.960;14.836;2022-08-19T06:05:36;26.00;99.90
31725;DHT22;18306;40.960;14.836;2022-08-19T06:08:04;25.90;99.90
31725;DHT22;18306;40.960;14.836;2022-08-19T06:10:32;26.00;99.90
31725;DHT22;18306;40.960;14.836;2022-08-19T06:12:59;25.90;99.90
31725;DHT22;18306;40.960;14.836;2022-08-19T06:15:26;26.00;99.90
31725;DHT22;18306;40.960;14.836;2022-08-19T06:17:55;26.00;99.90
31725;DHT22;18306;40.960;14.836;2022-08-19T06:20:22;26.10;99.90
31725;DHT22;18306;40.960;14.836;2022-08-19T06:22:50;26.30;99.90
31725;DHT22;18306;40.960;14.836;2022-08-19T06:25:18;26.20;99.90
31725;DHT22;18306;40.960;14.836;2022-08-19T06:27:46;26.20;99.90
31725;DHT22;18306;40.960;14.836;2022-08-19T06:30:13;26.40;99.90
31725;DHT22;18306;40.960;14.836;2022-08-19T06:32:41;26.70;99.90
31725;DHT22;18306;40.960;14.836;2022-08-19T06:35:09;26.90;99.90
31725;DHT22;18306;40.960;14.836;2022-08-19T06:37:37;27.10;99.90
31725;DHT22;18306;40.960;14.836;2022-08-19T06:40:05;27.30;99.90
31725;DHT22;18306;40.960;14.836;2022-08-19T06:42:32;27.50;99.90
31725;DHT22;18306;40.960;14.836;2022-08-19T06:45:00;27.70;99.90
31725;DHT22;18306;40.960;14.836;2022-08-19T06:47:30;27.90;99.90
31725;DHT22;18306;40.960;14.836;2022-08-19T06:49:59;27.90;99.90
31725;DHT22;18306;40.960;14.836;2022-08-19T06:52:32;28.20;99.90
31725;DHT22;18306;40.960;14.836;2022-08-19T06:55:01;28.40;99.90
31725;DHT22;18306;40.960;14.836;2022-08-19T06:57:30;28.60;99.90
31725;DHT22;18306;40.960;14.836;2022-08-19T06:59:59;28.70;99.90
31725;DHT22;18306;40.960;14.836;2022-08-19T07:02:29;28.80;99.90
31725;DHT22;18306;40.960;14.836;2022-08-19T07:04:56;28.80;99.90
31725;DHT22;18306;40.960;14.836;2022-08-19T07:07:25;28.60;99.90
31725;DHT22;18306;40.960;14.836;2022-08-19T07:09:52;28.50;99.90
31725;DHT22;18306;40.960;14.836;2022-08-19T07:12:20;28.30;99.90
31725;DHT22;18306;40.960;14.836;2022-08-19T07:14:47;28.20;99.90
31725;DHT22;18306;40.960;14.836;2022-08-19T07:17:15;28.30;99.90
31725;DHT22;18306;40.960;14.836;2022-08-19T07:19:43;28.20;99.90
31725;DHT22;18306;40.960;14.836;2022-08-19T07:22:13;28.10;99.90
31725;DHT22;18306;40.960;14.836;2022-08-19T07:24:43;27.90;99.90
31725;DHT22;18306;40.960;14.836;2022-08-19T07:27:10;27.90;99.90
31725;DHT22;18306;40.960;14.836;2022-08-19T07:29:38;28.00;99.90
31725;DHT22;18306;40.960;14.836;2022-08-19T07:32:06;28.20;99.90
31725;DHT22;18306;40.960;14.836;2022-08-19T07:34:34;28.30;99.90
31725;DHT22;18306;40.960;14.836;2022-08-19T07:37:05;28.10;99.90
31725;DHT22;18306;40.960;14.836;2022-08-19T07:39:35;28.10;99.90
31725;DHT22;18306;40.960;14.836;2022-08-19T07:42:07;28.10;99.90
31725;DHT22;18306;40.960;14.836;2022-08-19T07:44:36;28.20;99.90
31725;DHT22;18306;40.960;14.836;2022-08-19T07:47:05;28.00;99.90
31725;DHT22;18306;40.960;14.836;2022-08-19T07:49:33;27.80;99.90
31725;DHT22;18306;40.960;14.836;2022-08-19T07:52:05;27.60;99.90
31725;DHT22;18306;40.960;14.836;2022-08-19T07:54:35;27.60;99.90
31725;DHT22;18306;40.960;14.836;2022-08-19T07:57:05;27.60;99.90
31725;DHT22;18306;40.960;14.836;2022-08-19T07:59:34;27.70;99.90
31725;DHT22;18306;40.960;14.836;2022-08-19T08:02:02;27.70;99.90
31725;DHT22;18306;40.960;14.836;2022-08-19T08:04:30;27.80;99.90
31725;DHT22;18306;40.960;14.836;2022-08-19T08:07:16;27.70;99.90
31725;DHT22;18306;40.960;14.836;2022-08-19T08:10:14;27.90;99.90
31725;DHT22;18306;40.960;14.836;2022-08-19T08:12:54;28.20;99.90
31725;DHT22;18306;40.960;14.836;2022-08-19T08:15:22;28.40;99.90
31725;DHT22;18306;40.960;14.836;2022-08-19T08:17:50;28.30;99.90
31725;DHT22;18306;40.960;14.836;2022-08-19T08:20:19;28.00;99.90
31725;DHT22;18306;40.960;14.836;2022-08-19T08:22:47;28.00;99.90
31725;DHT22;18306;40.960;14.836;2022-08-19T08:25:33;27.80;99.90
31725;DHT22;18306;40.960;14.836;2022-08-19T08:28:03;27.90;99.90
31725;DHT22;18306;40.960;14.836;2022-08-19T08:30:31;27.90;99.90
31725;DHT22;18306;40.960;14.836;2022-08-19T08:33:01;27.80;99.90
31725;DHT22;18306;40.960;14.836;2022-08-19T08:35:28;27.80;99.90
31725;DHT22;18306;40.960;14.836;2022-08-19T08:37:55;27.80;99.90
31725;DHT22;18306;40.960;14.836;2022-08-19T08:43:00;27.90;99.90
31725;DHT22;18306;40.960;14.836;2022-08-19T08:45:42;27.90;99.90
31725;DHT22;18306;40.960;14.836;2022-08-19T08:51:09;28.40;99.90
31725;DHT22;18306;40.960;14.836;2022-08-19T08:53:39;28.40;99.90
31725;DHT22;18306;40.960;14.836;2022-08-19T08:56:09;28.20;99.90
31725;DHT22;18306;40.960;14.836;2022-08-19T08:58:49;28.20;99.90
31725;DHT22;18306;40.960;14.836;2022-08-19T09:01:18;28.40;99.90
31725;DHT22;18306;40.960;14.836;2022-08-19T09:03:46;28.30;99.90
31725;DHT22;18306;40.960;14.836;2022-08-19T09:06:32;28.00;99.90
31725;DHT22;18306;40.960;14.836;2022-08-19T09:09:17;27.70;99.90
31725;DHT22;18306;40.960;14.836;2022-08-19T09:12:13;27.80;99.90
31725;DHT22;18306;40.960;14.836;2022-08-19T09:15:18;27.80;99.90
31725;DHT22;18306;40.960;14.836;2022-08-19T09:17:47;27.60;99.90
31725;DHT22;18306;40.960;14.836;2022-08-19T09:20:22;27.50;99.90
31725;DHT22;18306;40.960;14.836;2022-08-19T09:22:50;27.50;99.90
31725;DHT22;18306;40.960;14.836;2022-08-19T09:25:20;27.60;99.90
31725;DHT22;18306;40.960;14.836;2022-08-19T09:27:52;27.90;99.90
31725;DHT22;18306;40.960;14.836;2022-08-19T09:30:26;27.90;99.90
31725;DHT22;18306;40.960;14.836;2022-08-19T09:32:55;27.90;99.90
31725;DHT22;18306;40.960;14.836;2022-08-19T09:35:24;27.70;99.90
31725;DHT22;18306;40.960;14.836;2022-08-19T09:37:53;27.80;99.90
31725;DHT22;18306;40.960;14.836;2022-08-19T09:40:20;27.70;99.90
31725;DHT22;18306;40.960;14.836;2022-08-19T09:42:48;27.50;99.90
31725;DHT22;18306;40.960;14.836;2022-08-19T09:45:17;27.50;99.90
31725;DHT22;18306;40.960;14.836;2022-08-19T09:47:45;27.40;99.90
31725;DHT22;18306;40.960;14.836;2022-08-19T09:50:13;27.20;99.90
31725;DHT22;18306;40.960;14.836;2022-08-19T09:52:44;27.10;99.90
31725;DHT22;18306;40.960;14.836;2022-08-19T09:55:12;27.20;99.90
31725;DHT22;18306;40.960;14.836;2022-08-19T09:57:40;27.30;99.90
31725;DHT22;18306;40.960;14.836;2022-08-19T10:00:08;27.40;99.90
31725;DHT22;18306;40.960;14.836;2022-08-19T10:02:36;27.60;99.90
31725;DHT22;18306;40.960;14.836;2022-08-19T10:05:04;28.10;99.90
31725;DHT22;18306;40.960;14.836;2022-08-19T10:08:00;28.20;99.90
31725;DHT22;18306;40.960;14.836;2022-08-19T10:10:28;28.20;99.90
31725;DHT22;18306;40.960;14.836;2022-08-19T10:12:55;28.10;99.90
31725;DHT22;18306;40.960;14.836;2022-08-19T10:15:26;28.20;99.90
31725;DHT22;18306;40.960;14.836;2022-08-19T10:17:53;28.30;99.90
31725;DHT22;18306;40.960;14.836;2022-08-19T10:20:21;28.50;99.90
31725;DHT22;18306;40.960;14.836;2022-08-19T10:22:50;28.50;99.90
31725;DHT22;18306;40.960;14.836;2022-08-19T10:25:18;28.60;99.90
31725;DHT22;18306;40.960;14.836;2022-08-19T10:27:46;28.60;99.90
31725;DHT22;18306;40.960;14.836;2022-08-19T10:30:14;28.70;99.90
31725;DHT22;18306;40.960;14.836;2022-08-19T10:32:41;28.80;99.90
31725;DHT22;18306;40.960;14.836;2022-08-19T10:35:13;28.80;99.90
31725;DHT22;18306;40.960;14.836;2022-08-19T10:37:41;28.50;99.90
31725;DHT22;18306;40.960;14.836;2022-08-19T10:40:09;28.30;99.90
31725;DHT22;18306;40.960;14.836;2022-08-19T10:42:38;28.10;99.90
31725;DHT22;18306;40.960;14.836;2022-08-19T10:45:06;27.90;99.90
31725;DHT22;18306;40.960;14.836;2022-08-19T10:47:37;27.90;99.90
31725;DHT22;18306;40.960;14.836;2022-08-19T10:50:08;27.90;99.90
31725;DHT22;18306;40.960;14.836;2022-08-19T10:52:56;28.00;99.90
31725;DHT22;18306;40.960;14.836;2022-08-19T10:55:26;28.10;99.90
31725;DHT22;18306;40.960;14.836;2022-08-19T10:58:17;28.20;99.90
31725;DHT22;18306;40.960;14.836;2022-08-19T11:00:57;28.40;99.90
31725;DHT22;18306;40.960;14.836;2022-08-19T11:03:26;28.50;99.90
31725;DHT22;18306;40.960;14.836;2022-08-19T11:06:00;28.20;99.90
31725;DHT22;18306;40.960;14.836;2022-08-19T11:08:28;28.10;99.90
31725;DHT22;18306;40.960;14.836;2022-08-19T11:11:00;28.40;99.90
31725;DHT22;18306;40.960;14.836;2022-08-19T11:13:38;28.80;99.90
31725;DHT22;18306;40.960;14.836;2022-08-19T11:16:19;28.90;99.90
31725;DHT22;18306;40.960;14.836;2022-08-19T11:18:53;28.60;99.90
31725;DHT22;18306;40.960;14.836;2022-08-19T11:21:32;28.70;99.90
31725;DHT22;18306;40.960;14.836;2022-08-19T11:24:02;28.70;99.90
31725;DHT22;18306;40.960;14.836;2022-08-19T11:26:31;28.90;99.90
31725;DHT22;18306;40.960;14.836;2022-08-19T11:28:59;28.90;99.90
31725;DHT22;18306;40.960;14.836;2022-08-19T11:31:34;29.10;99.90
31725;DHT22;18306;40.960;14.836;2022-08-19T11:34:25;28.80;99.90
31725;DHT22;18306;40.960;14.836;2022-08-19T11:36:56;28.90;99.90
31725;DHT22;18306;40.960;14.836;2022-08-19T11:39:29;28.90;99.90
31725;DHT22;18306;40.960;14.836;2022-08-19T11:42:01;29.00;99.90
31725;DHT22;18306;40.960;14.836;2022-08-19T11:44:47;29.20;99.90
31725;DHT22;18306;40.960;14.836;2022-08-19T11:47:15;29.30;99.90
31725;DHT22;18306;40.960;14.836;2022-08-19T11:49:42;29.30;99.90
31725;DHT22;18306;40.960;14.836;2022-08-19T11:52:10;29.50;99.90
31725;DHT22;18306;40.960;14.836;2022-08-19T11:54:38;29.50;99.90
31725;DHT22;18306;40.960;14.836;2022-08-19T11:57:06;29.40;99.90
31725;DHT22;18306;40.960;14.836;2022-08-19T11:59:33;29.30;99.90
31725;DHT22;18306;40.960;14.836;2022-08-19T12:02:07;29.10;99.90
31725;DHT22;18306;40.960;14.836;2022-08-19T12:04:39;28.90;99.90
31725;DHT22;18306;40.960;14.836;2022-08-19T12:07:07;28.70;99.90
31725;DHT22;18306;40.960;14.836;2022-08-19T12:09:35;28.60;99.90
31725;DHT22;18306;40.960;14.836;2022-08-19T12:12:03;28.80;99.90
31725;DHT22;18306;40.960;14.836;2022-08-19T12:14:30;28.90;99.90
31725;DHT22;18306;40.960;14.836;2022-08-19T12:16:59;28.90;99.90
31725;DHT22;18306;40.960;14.836;2022-08-19T12:19:27;28.80;99.90
31725;DHT22;18306;40.960;14.836;2022-08-19T12:21:59;28.90;99.90
31725;DHT22;18306;40.960;14.836;2022-08-19T12:24:31;28.90;99.90
31725;DHT22;18306;40.960;14.836;2022-08-19T12:26:59;28.70;99.90
31725;DHT22;18306;40.960;14.836;2022-08-19T12:29:32;28.80;99.90
31725;DHT22;18306;40.960;14.836;2022-08-19T12:32:01;28.80;99.90
31725;DHT22;18306;40.960;14.836;2022-08-19T12:34:29;28.80;99.90
31725;DHT22;18306;40.960;14.836;2022-08-19T12:36:58;28.90;99.90
31725;DHT22;18306;40.960;14.836;2022-08-19T12:39:26;29.10;99.90
31725;DHT22;18306;40.960;14.836;2022-08-19T12:41:54;29.10;99.90
31725;DHT22;18306;40.960;14.836;2022-08-19T12:44:22;29.30;99.90
31725;DHT22;18306;40.960;14.836;2022-08-19T12:46:49;29.00;99.90
31725;DHT22;18306;40.960;14.836;2022-08-19T12:49:21;28.80;99.90
31725;DHT22;18306;40.960;14.836;2022-08-19T12:51:48;28.80;99.90
31725;DHT22;18306;40.960;14.836;2022-08-19T12:54:17;29.10;99.90
31725;DHT22;18306;40.960;14.836;2022-08-19T12:56:44;29.20;99.90
31725;DHT22;18306;40.960;14.836;2022-08-19T12:59:13;29.20;99.90
31725;DHT22;18306;40.960;14.836;2022-08-19T13:01:40;29.30;99.90
31725;DHT22;18306;40.960;14.836;2022-08-19T13:04:08;29.50;99.90
31725;DHT22;18306;40.960;14.836;2022-08-19T13:06:37;29.40;99.90
31725;DHT22;18306;40.960;14.836;2022-08-19T13:09:07;29.00;99.90
31725;DHT22;18306;40.960;14.836;2022-08-19T13:11:51;29.00;99.90
31725;DHT22;18306;40.960;14.836;2022-08-19T13:14:40;29.10;99.90
31725;DHT22;18306;40.960;14.836;2022-08-19T13:17:11;29.00;99.90
31725;DHT22;18306;40.960;14.836;2022-08-19T13:19:40;28.70;99.90
31725;DHT22;18306;40.960;14.836;2022-08-19T13:22:12;28.80;99.90
31725;DHT22;18306;40.960;14.836;2022-08-19T13:24:39;28.80;99.90
31725;DHT22;18306;40.960;14.836;2022-08-19T13:27:07;28.80;99.90
31725;DHT22;18306;40.960;14.836;2022-08-19T13:29:40;29.00;99.90
31725;DHT22;18306;40.960;14.836;2022-08-19T13:32:26;29.10;99.90
31725;DHT22;18306;40.960;14.836;2022-08-19T13:35:12;29.10;99.90
31725;DHT22;18306;40.960;14.836;2022-08-19T13:37:39;29.10;99.90
31725;DHT22;18306;40.960;14.836;2022-08-19T13:43:26;28.80;99.80
31725;DHT22;18306;40.960;14.836;2022-08-19T13:45:55;28.70;99.80
31725;DHT22;18306;40.960;14.836;2022-08-19T13:48:26;29.00;99.80
31725;DHT22;18306;40.960;14.836;2022-08-19T13:50:53;29.10;99.90
31725;DHT22;18306;40.960;14.836;2022-08-19T13:53:21;29.10;99.60
31725;DHT22;18306;40.960;14.836;2022-08-19T13:55:49;29.00;99.90
31725;DHT22;18306;40.960;14.836;2022-08-19T13:58:17;29.20;99.90
31725;DHT22;18306;40.960;14.836;2022-08-19T14:00:46;29.10;99.90
31725;DHT22;18306;40.960;14.836;2022-08-19T14:03:14;29.10;99.30
31725;DHT22;18306;40.960;14.836;2022-08-19T14:05:41;28.80;99.40
31725;DHT22;18306;40.960;14.836;2022-08-19T14:08:08;28.90;99.60
31725;DHT22;18306;40.960;14.836;2022-08-19T14:10:39;28.90;99.90
31725;DHT22;18306;40.960;14.836;2022-08-19T14:13:15;29.00;99.70
31725;DHT22;18306;40.960;14.836;2022-08-19T14:15:44;28.90;99.70
31725;DHT22;18306;40.960;14.836;2022-08-19T14:18:12;28.90;99.60
31725;DHT22;18306;40.960;14.836;2022-08-19T14:20:40;28.80;99.90
31725;DHT22;18306;40.960;14.836;2022-08-19T14:23:08;28.60;99.90
31725;DHT22;18306;40.960;14.836;2022-08-19T14:25:35;28.70;99.90
31725;DHT22;18306;40.960;14.836;2022-08-19T14:28:11;28.70;99.90
31725;DHT22;18306;40.960;14.836;2022-08-19T14:30:39;28.80;99.60
31725;DHT22;18306;40.960;14.836;2022-08-19T14:33:08;28.80;98.90
31725;DHT22;18306;40.960;14.836;2022-08-19T14:35:37;28.70;99.10
31725;DHT22;18306;40.960;14.836;2022-08-19T14:38:06;28.80;99.30
31725;DHT22;18306;40.960;14.836;2022-08-19T14:40:42;28.90;99.30
31725;DHT22;18306;40.960;14.836;2022-08-19T14:43:09;28.90;99.20
31725;DHT22;18306;40.960;14.836;2022-08-19T14:45:39;29.00;98.80
31725;DHT22;18306;40.960;14.836;2022-08-19T14:48:14;28.90;99.40
31725;DHT22;18306;40.960;14.836;2022-08-19T14:50:43;28.90;99.00
31725;DHT22;18306;40.960;14.836;2022-08-19T14:53:11;29.10;99.50
31725;DHT22;18306;40.960;14.836;2022-08-19T14:55:44;28.80;99.10
31725;DHT22;18306;40.960;14.836;2022-08-19T14:58:12;28.80;99.60
31725;DHT22;18306;40.960;14.836;2022-08-19T15:00:39;28.70;99.90
31725;DHT22;18306;40.960;14.836;2022-08-19T15:03:07;28.70;99.90
31725;DHT22;18306;40.960;14.836;2022-08-19T15:05:34;28.80;99.50
31725;DHT22;18306;40.960;14.836;2022-08-19T15:08:05;28.60;99.00
31725;DHT22;18306;40.960;14.836;2022-08-19T15:10:33;28.60;99.10
31725;DHT22;18306;40.960;14.836;2022-08-19T15:13:00;28.40;98.80
31725;DHT22;18306;40.960;14.836;2022-08-19T15:15:27;28.50;99.60
31725;DHT22;18306;40.960;14.836;2022-08-19T15:17:55;28.30;99.90
31725;DHT22;18306;40.960;14.836;2022-08-19T15:20:29;28.10;99.90
31725;DHT22;18306;40.960;14.836;2022-08-19T15:22:56;28.00;99.90
31725;DHT22;18306;40.960;14.836;2022-08-19T15:25:26;28.10;99.90
31725;DHT22;18306;40.960;14.836;2022-08-19T15:27:54;28.10;99.90
31725;DHT22;18306;40.960;14.836;2022-08-19T15:30:24;28.20;99.90
31725;DHT22;18306;40.960;14.836;2022-08-19T15:32:53;28.30;99.90
31725;DHT22;18306;40.960;14.836;2022-08-19T15:35:22;28.10;99.90
31725;DHT22;18306;40.960;14.836;2022-08-19T15:37:53;28.10;99.90
31725;DHT22;18306;40.960;14.836;2022-08-19T15:40:22;28.00;99.90
31725;DHT22;18306;40.960;14.836;2022-08-19T15:42:50;28.00;99.90
31725;DHT22;18306;40.960;14.836;2022-08-19T15:45:20;27.90;99.90
31725;DHT22;18306;40.960;14.836;2022-08-19T15:47:50;27.70;99.90